createdAt,value
2022-08-19T00:01:44.692Z,10.30
2022-08-19T00:04:20.459Z,13.57
2022-08-19T00:06:49.297Z,10.90
2022-08-19T00:09:19.430Z,11.35
2022-08-19T00:11:47.943Z,12.13
2022-08-19T00:14:18.097Z,11.20
2022-08-19T00:16:48.220Z,10.93
2022-08-19T00:19:18.165Z,15.77
2022-08-19T00:21:46.119Z,16.05
2022-08-19T00:24:16.393Z,10.75
2022-08-19T00:26:46.129Z,10.40
2022-08-19T00:29:16.654Z,10.63
2022-08-19T00:31:45.076Z,13.07
2022-08-19T00:34:13.286Z,12.25
2022-08-19T00:36:43.036Z,9.67
2022-08-19T00:39:11.858Z,11.90
2022-08-19T00:41:39.692Z,9.88
2022-08-19T00:44:11.334Z,10.38
2022-08-19T00:46:42.526Z,12.10
2022-08-19T00:49:16.419Z,9.88
2022-08-19T00:51:48.717Z,10.38
2022-08-19T00:54:17.470Z,12.48
2022-08-19T00:56:47.138Z,8.73
2022-08-19T00:59:16.870Z,12.55
2022-08-19T01:02:05.395Z,16.08
2022-08-19T01:04:33.247Z,14.88
2022-08-19T01:07:04.035Z,11.60
2022-08-19T01:09:32.950Z,14.60
2022-08-19T01:12:01.443Z,13.88
2022-08-19T01:14:29.466Z,11.73
2022-08-19T01:16:58.234Z,13.80
2022-08-19T01:19:30.842Z,17.73
2022-08-19T01:22:21.251Z,14.13
2022-08-19T01:24:55.847Z,13.70
2022-08-19T01:27:24.697Z,11.82
2022-08-19T01:29:52.653Z,14.20
2022-08-19T01:32:33.629Z,14.15
2022-08-19T01:35:03.683Z,9.30
2022-08-19T01:37:32.688Z,12.25
2022-08-19T01:40:04.348Z,13.10
2022-08-19T01:42:34.304Z,10.02
2022-08-19T01:45:02.179Z,13.93
2022-08-19T01:47:30.143Z,16.38
2022-08-19T01:49:59.931Z,11.63
2022-08-19T01:52:28.229Z,13.20
2022-08-19T01:54:56.085Z,12.23
2022-08-19T01:57:25.368Z,15.32
2022-08-19T01:59:53.578Z,11.43
2022-08-19T02:02:21.665Z,10.03
2022-08-19T02:04:49.929Z,11.43
2022-08-19T02:07:20.673Z,12.00
2022-08-19T02:09:49.056Z,10.43
2022-08-19T02:12:17.251Z,11.80
2022-08-19T02:14:46.447Z,13.63
2022-08-19T02:19:41.999Z,17.08
2022-08-19T02:22:09.843Z,18.92
2022-08-19T02:24:37.687Z,18.17
2022-08-19T02:27:06.777Z,23.33
2022-08-19T02:32:05.899Z,13.15
2022-08-19T02:34:33.729Z,18.52
2022-08-19T02:37:03.924Z,18.55
2022-08-19T02:39:31.037Z,21.88
2022-08-19T02:42:00.547Z,20.33
2022-08-19T02:44:31.819Z,20.75
2022-08-19T02:47:00.026Z,22.63
2022-08-19T02:49:29.347Z,19.63
2022-08-19T02:52:02.448Z,17.48
2022-08-19T02:54:31.194Z,14.80
2022-08-19T02:56:59.411Z,16.75
2022-08-19T02:59:27.512Z,17.42
2022-08-19T03:01:55.403Z,13.38
2022-08-19T03:04:23.968Z,17.45
2022-08-19T03:06:53.247Z,12.23
2022-08-19T03:09:22.012Z,17.02
2022-08-19T03:11:52.714Z,18.88
2022-08-19T03:14:21.058Z,13.35
2022-08-19T03:16:54.265Z,13.32
2022-08-19T03:19:23.239Z,14.40
2022-08-19T03:21:53.190Z,12.18
2022-08-19T03:24:21.781Z,15.55
2022-08-19T03:26:52.308Z,18.73
2022-08-19T03:29:31.072Z,14.82
2022-08-19T03:32:01.566Z,17.23
2022-08-19T03:34:32.007Z,18.02
2022-08-19T03:37:06.790Z,18.38
2022-08-19T03:39:34.725Z,23.45
2022-08-19T03:42:33.015Z,22.25
2022-08-19T03:44:51.559Z,23.30
2022-08-19T03:47:19.391Z,26.83
2022-08-19T03:49:47.478Z,24.70
2022-08-19T03:52:16.670Z,26.70
2022-08-19T03:57:12.528Z,22.85
2022-08-19T03:59:40.721Z,21.38
2022-08-19T04:02:11.344Z,15.25
2022-08-19T04:04:41.393Z,29.25
2022-08-19T04:07:10.354Z,24.05
2022-08-19T04:09:39.647Z,24.42
2022-08-19T04:12:08.991Z,29.63
2022-08-19T04:14:36.930Z,21.38
2022-08-19T04:17:06.799Z,23.63
2022-08-19T04:19:38.904Z,21.50
2022-08-19T04:22:07.819Z,22.90
2022-08-19T04:24:39.246Z,27.27
2022-08-19T04:27:07.806Z,38.97
2022-08-19T04:29:36.135Z,31.80
2022-08-19T04:32:09.487Z,23.55
2022-08-19T04:35:01.542Z,25.02
2022-08-19T04:37:35.139Z,26.70
2022-08-19T04:40:25.913Z,27.73
2022-08-19T04:42:54.891Z,30.00
2022-08-19T04:47:58.652Z,37.78
2022-08-19T04:50:42.734Z,33.10
2022-08-19T04:53:10.901Z,37.15
2022-08-19T04:55:42.695Z,34.13
2022-08-19T04:58:10.791Z,38.38
2022-08-19T05:00:40.888Z,36.58
2022-08-19T05:03:09.038Z,37.53
2022-08-19T05:05:44.852Z,35.65
2022-08-19T05:08:14.230Z,37.65
2022-08-19T05:10:45.461Z,28.65
2022-08-19T05:13:13.312Z,38.47
2022-08-19T05:15:41.291Z,38.88
2022-08-19T05:18:26.701Z,31.25
2022-08-19T05:21:11.904Z,42.55
2022-08-19T05:23:39.918Z,41.10
2022-08-19T05:26:11.418Z,46.67
2022-08-19T05:28:39.291Z,42.00
2022-08-19T05:31:07.188Z,46.65
2022-08-19T05:33:35.070Z,31.30
2022-08-19T05:36:03.956Z,45.13
2022-08-19T05:38:31.888Z,45.45
2022-08-19T05:40:59.767Z,43.88
2022-08-19T05:43:28.988Z,47.92
2022-08-19T05:48:24.548Z,42.45
2022-08-19T05:50:52.452Z,36.17
2022-08-19T05:53:20.700Z,38.28
2022-08-19T05:55:48.601Z,41.53
2022-08-19T05:58:16.469Z,37.38
2022-08-19T06:00:46.421Z,37.53
2022-08-19T06:03:14.270Z,31.80
2022-08-19T06:05:49.700Z,32.33
2022-08-19T06:08:20.134Z,36.65
2022-08-19T06:10:50.591Z,34.67
2022-08-19T06:13:20.351Z,33.45
2022-08-19T06:15:49.734Z,33.45
2022-08-19T06:18:18.390Z,27.52
2022-08-19T06:20:55.897Z,36.08
2022-08-19T06:23:24.532Z,30.20
2022-08-19T06:25:52.380Z,31.80
2022-08-19T06:28:20.423Z,28.65
2022-08-19T06:30:49.852Z,27.67
2022-08-19T06:33:17.688Z,22.50
2022-08-19T06:35:46.744Z,19.13
2022-08-19T06:38:14.621Z,26.37
2022-08-19T06:43:16.769Z,33.97
2022-08-19T06:45:47.798Z,24.98
2022-08-19T06:48:17.091Z,25.95
2022-08-19T06:50:46.105Z,26.50
2022-08-19T06:53:14.501Z,25.27
2022-08-19T06:55:42.552Z,26.35
2022-08-19T06:58:10.452Z,23.90
2022-08-19T07:00:38.752Z,23.73
2022-08-19T07:03:08.779Z,26.55
2022-08-19T07:05:45.476Z,26.85
2022-08-19T07:08:13.802Z,25.85
2022-08-19T07:10:45.853Z,25.40
2022-08-19T07:13:13.924Z,29.60
2022-08-19T07:15:41.859Z,27.23
2022-08-19T07:18:11.622Z,33.35
2022-08-19T07:20:41.941Z,33.28
2022-08-19T07:23:11.162Z,35.97
2022-08-19T07:25:44.824Z,33.08
2022-08-19T07:28:24.264Z,37.72
2022-08-19T07:30:53.481Z,34.70
2022-08-19T07:33:22.014Z,27.40
2022-08-19T07:35:51.696Z,34.85
2022-08-19T07:38:19.732Z,30.73
2022-08-19T07:40:47.875Z,35.90
2022-08-19T07:43:18.243Z,28.70
2022-08-19T07:45:48.006Z,27.13
2022-08-19T07:48:16.437Z,29.02
2022-08-19T07:50:44.731Z,21.00
2022-08-19T07:53:14.101Z,25.55
2022-08-19T07:55:43.827Z,25.77
2022-08-19T07:58:14.357Z,24.75
2022-08-19T08:00:42.837Z,33.00
2022-08-19T08:03:11.499Z,23.02
2022-08-19T08:05:57.052Z,23.45
2022-08-19T08:08:47.916Z,27.88
2022-08-19T08:11:20.529Z,23.15
2022-08-19T08:14:01.043Z,27.52
2022-08-19T08:16:32.867Z,24.10
2022-08-19T08:19:02.588Z,20.20
2022-08-19T08:21:35.821Z,21.00
2022-08-19T08:26:33.748Z,26.63
2022-08-19T08:29:02.631Z,22.17
2022-08-19T08:31:41.416Z,20.83
2022-08-19T08:34:09.842Z,19.50
2022-08-19T08:36:42.594Z,24.45
2022-08-19T08:39:12.744Z,18.50
2022-08-19T08:41:48.631Z,20.25
2022-08-19T08:44:21.839Z,17.13
2022-08-19T08:46:53.480Z,17.15
2022-08-19T08:49:33.235Z,17.35
2022-08-19T08:52:05.608Z,16.80
2022-08-19T08:54:48.756Z,19.42
2022-08-19T08:57:28.883Z,16.27
2022-08-19T09:00:05.678Z,18.20
2022-08-19T09:02:33.882Z,17.75
2022-08-19T09:05:02.404Z,15.65
2022-08-19T09:10:21.847Z,16.77
2022-08-19T09:13:03.663Z,15.13
2022-08-19T09:15:42.640Z,18.13
2022-08-19T09:18:19.029Z,17.40
2022-08-19T09:20:48.933Z,16.17
2022-08-19T09:23:17.742Z,18.65
2022-08-19T09:25:46.911Z,19.55
2022-08-19T09:28:22.479Z,21.27
2022-08-19T09:30:54.803Z,23.45
2022-08-19T09:33:23.431Z,25.98
2022-08-19T09:35:53.301Z,26.35
2022-08-19T09:38:22.141Z,23.60
2022-08-19T09:40:51.585Z,26.50
2022-08-19T09:43:33.299Z,26.95
2022-08-19T09:46:12.932Z,26.48
2022-08-19T09:48:43.242Z,22.95
2022-08-19T09:51:16.422Z,24.90
2022-08-19T09:53:46.091Z,26.73
2022-08-19T09:56:15.816Z,29.17
2022-08-19T09:58:47.609Z,22.40
2022-08-19T10:01:20.067Z,24.88
2022-08-19T10:03:51.752Z,21.02
2022-08-19T10:06:46.349Z,23.98
2022-08-19T10:09:11.793Z,24.58
2022-08-19T10:11:54.851Z,21.70
2022-08-19T10:14:24.597Z,25.48
2022-08-19T10:16:53.048Z,26.50
2022-08-19T10:19:26.088Z,21.73
2022-08-19T10:21:54.358Z,21.67
2022-08-19T10:24:28.807Z,19.33
2022-08-19T10:26:59.907Z,22.88
2022-08-19T10:29:32.243Z,24.40
2022-08-19T10:32:02.673Z,21.27
2022-08-19T10:34:32.304Z,23.88
2022-08-19T10:37:01.871Z,26.70
2022-08-19T10:39:32.614Z,26.33
2022-08-19T10:42:11.423Z,24.63
2022-08-19T10:44:39.374Z,20.95
2022-08-19T10:47:17.269Z,27.42
2022-08-19T10:50:12.073Z,25.90
2022-08-19T10:52:50.222Z,27.60
2022-08-19T10:55:38.451Z,27.77
2022-08-19T10:58:13.243Z,25.08
2022-08-19T11:00:43.196Z,24.80
2022-08-19T11:03:11.632Z,24.25
2022-08-19T11:05:40.668Z,25.75
2022-08-19T11:08:23.670Z,20.77
2022-08-19T11:11:00.160Z,21.25
2022-08-19T11:13:29.812Z,22.38
2022-08-19T11:16:06.769Z,25.77
2022-08-19T11:18:37.011Z,24.37
2022-08-19T11:21:09.420Z,24.20
2022-08-19T11:23:37.390Z,20.92
2022-08-19T11:26:05.701Z,23.90
2022-08-19T11:28:36.830Z,24.05
2022-08-19T11:31:04.981Z,21.85
2022-08-19T11:33:33.676Z,24.17
2022-08-19T11:36:02.105Z,27.08
2022-08-19T11:38:30.156Z,23.88
2022-08-19T11:40:59.040Z,25.10
2022-08-19T11:43:27.808Z,20.65
2022-08-19T11:45:57.456Z,18.85
2022-08-19T11:48:26.621Z,22.45
2022-08-19T11:50:56.352Z,22.08
2022-08-19T11:53:25.234Z,21.85
2022-08-19T11:55:56.856Z,16.27
2022-08-19T11:58:25.795Z,16.83
2022-08-19T12:00:54.214Z,17.67
2022-08-19T12:03:23.994Z,13.50
2022-08-19T12:05:52.156Z,13.20
2022-08-19T12:08:20.886Z,14.02
2022-08-19T12:10:48.866Z,14.68
2022-08-19T12:13:19.731Z,20.73
2022-08-19T12:15:49.027Z,15.27
2022-08-19T12:18:17.309Z,13.10
2022-08-19T12:20:47.039Z,12.50
2022-08-19T12:23:15.176Z,11.98
2022-08-19T12:25:49.337Z,8.02
2022-08-19T12:28:17.370Z,10.10
2022-08-19T12:30:45.247Z,6.55
2022-08-19T12:33:14.504Z,7.88
2022-08-19T12:35:45.650Z,6.97
2022-08-19T12:38:16.200Z,6.28
2022-08-19T12:40:47.725Z,11.60
2022-08-19T12:43:16.565Z,11.75
2022-08-19T12:45:46.028Z,7.68
2022-08-19T12:48:33.184Z,6.75
2022-08-19T12:51:03.617Z,7.45
2022-08-19T12:56:02.482Z,5.05
2022-08-19T12:58:31.381Z,13.32
2022-08-19T13:00:59.354Z,6.35
2022-08-19T13:03:30.273Z,7.28
2022-08-19T13:05:58.316Z,6.53
2022-08-19T13:08:26.373Z,6.70
2022-08-19T13:10:56.508Z,5.65
2022-08-19T13:13:26.340Z,6.85
2022-08-19T13:15:54.196Z,8.13
2022-08-19T13:18:22.051Z,5.33
2022-08-19T13:20:52.923Z,5.88
2022-08-19T13:23:21.117Z,4.00
2022-08-19T13:25:59.693Z,8.00
2022-08-19T13:28:47.855Z,6.72
2022-08-19T13:31:35.352Z,4.75
2022-08-19T13:34:03.490Z,4.07
2022-08-19T13:36:31.483Z,4.30
2022-08-19T13:38:59.756Z,10.45
2022-08-19T13:41:29.577Z,3.67
2022-08-19T13:43:57.517Z,3.33
2022-08-19T13:46:25.565Z,8.80
2022-08-19T13:48:53.395Z,7.82
2022-08-19T13:51:21.297Z,4.70
2022-08-19T13:53:49.182Z,2.47
2022-08-19T13:56:25.436Z,5.63
2022-08-19T13:58:55.507Z,3.42
2022-08-19T14:01:27.431Z,3.78
2022-08-19T14:03:55.308Z,2.83
2022-08-19T14:06:23.495Z,6.73
2022-08-19T14:08:51.446Z,4.93
2022-08-19T14:11:19.351Z,6.10
2022-08-19T14:13:47.168Z,4.20
2022-08-19T14:16:16.587Z,2.25
2022-08-19T14:18:46.287Z,6.22
2022-08-19T14:21:18.235Z,3.88
2022-08-19T14:23:46.514Z,3.13
2022-08-19T14:26:16.556Z,2.63
2022-08-19T14:28:45.297Z,4.68
2022-08-19T14:31:17.570Z,3.33
2022-08-19T14:33:47.299Z,3.85
2022-08-19T14:36:15.309Z,4.22
2022-08-19T14:38:43.655Z,4.47
2022-08-19T14:41:14.795Z,6.50
2022-08-19T14:43:43.169Z,4.07
2022-08-19T14:46:11.491Z,4.57
2022-08-19T14:48:41.452Z,7.53
2022-08-19T14:51:11.491Z,4.68
2022-08-19T14:53:40.082Z,5.68
2022-08-19T14:56:11.560Z,5.90
2022-08-19T14:58:41.205Z,4.57
2022-08-19T15:01:10.105Z,4.75
2022-08-19T15:06:07.279Z,9.20
2022-08-19T15:08:39.938Z,5.55
2022-08-19T15:11:10.675Z,3.80
2022-08-19T15:13:38.884Z,3.83
2022-08-19T15:16:07.251Z,4.15
2022-08-19T15:21:15.288Z,3.10
2022-08-19T15:23:45.538Z,8.88
2022-08-19T15:26:16.161Z,5.80
2022-08-19T15:28:44.362Z,7.68
2022-08-19T15:31:25.247Z,8.97
2022-08-19T15:33:58.258Z,5.03
2022-08-19T15:36:27.022Z,2.85
2022-08-19T15:38:56.598Z,7.28
2022-08-19T15:41:26.511Z,5.03
2022-08-19T15:43:56.961Z,4.38
2022-08-19T15:46:29.170Z,5.65
2022-08-19T15:48:59.701Z,4.18
2022-08-19T15:51:30.302Z,4.57
2022-08-19T15:54:00.810Z,3.75
2022-08-19T15:56:58.371Z,4.72
2022-08-19T15:59:47.129Z,6.45
2022-08-19T16:02:33.801Z,5.03
2022-08-19T16:05:19.540Z,4.50
2022-08-19T16:07:47.961Z,5.63
2022-08-19T16:10:27.459Z,5.43
2022-08-19T16:12:56.412Z,6.63
2022-08-19T16:17:57.116Z,5.15
2022-08-19T16:20:27.439Z,5.03
2022-08-19T16:22:55.439Z,6.18
2022-08-19T16:25:29.216Z,6.13
2022-08-19T16:28:07.367Z,5.30
2022-08-19T16:30:37.705Z,5.53
2022-08-19T16:33:05.804Z,6.15
2022-08-19T16:35:33.891Z,5.88
2022-08-19T16:38:02.595Z,5.57
2022-08-19T16:40:31.788Z,4.60
2022-08-19T16:42:59.887Z,5.05
2022-08-19T16:45:27.838Z,6.10
2022-08-19T16:47:57.146Z,4.37
2022-08-19T16:50:39.246Z,6.50
2022-08-19T16:53:13.217Z,8.25
2022-08-19T16:55:42.531Z,5.13
2022-08-19T16:58:10.400Z,8.32
2022-08-19T17:00:38.900Z,2.78
2022-08-19T17:03:11.852Z,6.60
2022-08-19T17:05:44.034Z,3.25
2022-08-19T17:08:12.065Z,2.97
2022-08-19T17:10:45.671Z,4.33
2022-08-19T17:13:29.492Z,5.20
2022-08-19T17:15:57.683Z,3.63
2022-08-19T17:18:26.194Z,3.35
2022-08-19T17:20:59.682Z,2.85
2022-08-19T17:23:37.557Z,7.27
2022-08-19T17:26:11.496Z,4.13
2022-08-19T17:28:49.750Z,8.98
2022-08-19T17:31:19.575Z,2.83
2022-08-19T17:33:48.545Z,3.75
2022-08-19T17:36:17.102Z,3.25
2022-08-19T17:38:45.167Z,2.45
2022-08-19T17:41:13.026Z,3.93
2022-08-19T17:43:43.779Z,6.72
2022-08-19T17:46:17.957Z,2.70
2022-08-19T17:48:51.783Z,3.50
2022-08-19T17:51:24.530Z,7.03
2022-08-19T17:53:54.017Z,3.08
2022-08-19T17:56:23.506Z,3.17
2022-08-19T17:58:57.856Z,2.65
2022-08-19T18:01:52.311Z,2.90
2022-08-19T18:04:19.629Z,2.90
2022-08-19T18:06:52.992Z,3.50
2022-08-19T18:09:24.363Z,2.42
2022-08-19T18:11:54.061Z,2.17
2022-08-19T18:14:28.065Z,2.55
2022-08-19T18:17:00.403Z,3.65
2022-08-19T18:19:40.554Z,7.07
2022-08-19T18:22:08.802Z,5.90
2022-08-19T18:24:38.877Z,3.20
2022-08-19T18:27:07.085Z,8.40
2022-08-19T18:29:38.036Z,5.53
2022-08-19T18:32:12.524Z,3.40
2022-08-19T18:34:41.083Z,4.00
2022-08-19T18:37:08.981Z,4.40
2022-08-19T18:39:54.246Z,6.63
2022-08-19T18:42:39.997Z,5.45
2022-08-19T18:45:26.682Z,4.85
2022-08-19T18:48:26.752Z,5.88
2022-08-19T18:50:57.863Z,4.13
2022-08-19T18:53:26.602Z,3.72
2022-08-19T18:55:55.086Z,3.70
2022-08-19T18:58:26.393Z,4.03
2022-08-19T19:00:57.203Z,4.43
2022-08-19T19:03:27.926Z,3.80
2022-08-19T19:05:56.108Z,4.93
2022-08-19T19:08:26.836Z,5.00
2022-08-19T19:10:55.996Z,2.13
2022-08-19T19:13:23.886Z,4.43
2022-08-19T19:15:51.783Z,5.05
2022-08-19T19:18:19.661Z,3.80
2022-08-19T19:20:48.857Z,3.25
2022-08-19T19:23:16.717Z,4.55
2022-08-19T19:25:50.937Z,4.45
2022-08-19T19:28:25.100Z,4.85
2022-08-19T19:30:54.215Z,5.20
2022-08-19T19:33:24.207Z,4.18
2022-08-19T19:35:53.409Z,5.50
2022-08-19T19:38:21.281Z,4.35
2022-08-19T19:40:49.143Z,5.30
2022-08-19T19:43:18.195Z,3.85
2022-08-19T19:48:16.522Z,8.38
2022-08-19T19:50:45.093Z,7.63
2022-08-19T19:53:15.026Z,3.47
2022-08-19T19:55:43.387Z,3.42
2022-08-19T19:58:11.216Z,3.90
2022-08-19T20:00:39.221Z,4.10
2022-08-19T20:03:07.270Z,5.47
2022-08-19T20:05:35.165Z,4.00
2022-08-19T20:08:20.656Z,4.43
2022-08-19T20:10:49.910Z,5.40
2022-08-19T20:13:17.800Z,4.13
2022-08-19T20:15:45.747Z,5.90
2022-08-19T20:18:14.726Z,5.05
2022-08-19T20:23:10.546Z,7.32
2022-08-19T20:25:40.047Z,3.97
2022-08-19T20:28:09.391Z,5.78
2022-08-19T20:30:39.050Z,4.93
2022-08-19T20:33:13.764Z,5.20
2022-08-19T20:35:42.344Z,4.80
2022-08-19T20:38:10.756Z,5.07
2022-08-19T20:40:39.262Z,5.78
2022-08-19T20:43:11.265Z,5.65
2022-08-19T20:45:39.655Z,5.53
2022-08-19T20:48:10.560Z,5.90
2022-08-19T20:50:38.563Z,5.65
2022-08-19T20:53:12.245Z,5.70
2022-08-19T20:55:40.347Z,5.05
2022-08-19T20:58:13.439Z,4.57
2022-08-19T21:00:44.006Z,5.22
2022-08-19T21:03:12.148Z,3.70
2022-08-19T21:05:40.431Z,12.43
2022-08-19T21:08:09.149Z,4.50
2022-08-19T21:10:41.753Z,5.93
2022-08-19T21:13:11.991Z,5.75
2022-08-19T21:15:43.097Z,4.63
2022-08-19T21:18:12.244Z,3.40
2022-08-19T21:23:09.995Z,3.13
2022-08-19T21:25:39.219Z,4.38
2022-08-19T21:28:07.501Z,3.30
2022-08-19T21:30:36.896Z,3.28
2022-08-19T21:33:06.056Z,4.00
2022-08-19T21:35:35.447Z,4.60
2022-08-19T21:38:03.223Z,4.45
2022-08-19T21:40:31.383Z,3.25
2022-08-19T21:43:01.800Z,4.17
2022-08-19T21:45:30.313Z,4.25
2022-08-19T21:47:59.704Z,3.10
2022-08-19T21:50:28.805Z,6.07
2022-08-19T21:52:56.734Z,5.68
2022-08-19T21:55:24.666Z,5.22
2022-08-19T21:57:52.603Z,4.05
2022-08-19T22:00:22.625Z,3.72
2022-08-19T22:02:51.212Z,6.38
2022-08-19T22:05:22.932Z,5.32
2022-08-19T22:07:51.056Z,5.13
2022-08-19T22:10:20.343Z,4.83
2022-08-19T22:12:51.760Z,4.45
2022-08-19T22:15:21.615Z,2.95
2022-08-19T22:17:50.138Z,4.13
2022-08-19T22:20:22.283Z,3.72
2022-08-19T22:22:52.160Z,4.68
2022-08-19T22:25:29.101Z,4.85
2022-08-19T22:28:01.735Z,4.88
2022-08-19T22:30:33.398Z,5.50
2022-08-19T22:33:05.042Z,5.10
2022-08-19T22:35:36.404Z,3.75
2022-08-19T22:38:07.218Z,4.22
2022-08-19T22:40:39.457Z,6.78
2022-08-19T22:43:11.984Z,3.90
2022-08-19T22:45:40.156Z,3.42
2022-08-19T22:48:10.448Z,4.97
2022-08-19T22:50:41.566Z,4.35
2022-08-19T22:53:09.825Z,3.67
2022-08-19T22:55:39.463Z,5.63
2022-08-19T22:58:07.352Z,3.85
2022-08-19T23:00:35.903Z,4.32
2022-08-19T23:03:03.769Z,3.90
2022-08-19T23:05:31.613Z,3.45
2022-08-19T23:08:00.818Z,5.07
2022-08-19T23:10:29.834Z,2.80
2022-08-19T23:12:59.780Z,2.90
2022-08-19T23:15:30.267Z,2.20
2022-08-19T23:18:00.396Z,1.52
2022-08-19T23:20:31.287Z,2.72
2022-08-19T23:23:02.653Z,4.07
2022-08-19T23:25:32.606Z,3.58
2022-08-19T23:28:18.255Z,2.78
2022-08-19T23:30:48.779Z,2.30
2022-08-19T23:33:21.614Z,2.90
2022-08-19T23:35:49.569Z,2.22
2022-08-19T23:38:19.004Z,4.97
2022-08-19T23:40:47.799Z,2.75
2022-08-19T23:43:24.478Z,1.98
2022-08-19T23:45:57.500Z,3.30
2022-08-19T23:48:31.144Z,3.30
2022-08-19T23:50:59.565Z,2.83
2022-08-19T23:53:29.740Z,3.35
2022-08-19T23:55:57.955Z,4.40
2022-08-19T23:58:29.997Z,3.90
